createdAt,value
2023-02-22T00:03:08.097Z,0.73
2023-02-22T00:07:09.634Z,0.65
2023-02-22T00:11:11.240Z,0.60
2023-02-22T00:15:14.191Z,0.85
2023-02-22T00:19:15.602Z,0.95
2023-02-22T00:23:20.534Z,0.52
2023-02-22T00:27:21.955Z,0.80
2023-02-22T00:31:24.356Z,0.75
2023-02-22T00:35:28.305Z,1.33
2023-02-22T00:39:30.632Z,0.47
2023-02-22T00:43:32.064Z,1.15
2023-02-22T00:47:33.531Z,0.65
2023-02-22T00:51:34.993Z,0.80
2023-02-22T00:55:38.099Z,0.68
2023-02-22T00:59:39.542Z,0.98
2023-02-22T01:03:41.151Z,0.63
2023-02-22T01:07:43.086Z,0.98
2023-02-22T01:11:45.321Z,0.95
2023-02-22T01:15:46.899Z,0.55
2023-02-22T01:19:48.328Z,0.63
2023-02-22T01:23:49.781Z,0.30
2023-02-22T01:27:52.514Z,0.60
2023-02-22T01:31:55.893Z,0.70
2023-02-22T01:35:57.790Z,0.75
2023-02-22T01:39:59.231Z,0.77
2023-02-22T01:44:24.977Z,0.80
2023-02-22T01:48:35.439Z,0.95
2023-02-22T01:52:37.357Z,0.70
2023-02-22T01:56:45.168Z,0.57
2023-02-22T02:00:46.700Z,1.25
2023-02-22T02:04:49.014Z,0.60
2023-02-22T02:09:02.602Z,0.85
2023-02-22T02:13:04.357Z,0.60
2023-02-22T02:17:09.791Z,1.55
2023-02-22T02:21:54.742Z,0.70
2023-02-22T02:26:28.477Z,0.50
2023-02-22T02:30:53.499Z,0.70
2023-02-22T02:35:12.242Z,1.10
2023-02-22T02:39:43.491Z,0.65
2023-02-22T02:43:54.126Z,1.05
2023-02-22T02:47:58.919Z,0.70
2023-02-22T02:52:02.605Z,0.68
2023-02-22T02:56:04.891Z,0.47
2023-02-22T03:00:22.532Z,1.02
2023-02-22T03:04:48.771Z,0.65
2023-02-22T03:09:02.341Z,0.57
2023-02-22T03:13:30.295Z,1.30
2023-02-22T03:17:54.148Z,1.17
2023-02-22T03:22:01.016Z,0.75
2023-02-22T03:26:13.066Z,0.50
2023-02-22T03:30:40.013Z,0.60
2023-02-22T03:34:50.645Z,0.98
2023-02-22T03:38:57.587Z,0.57
2023-02-22T03:43:06.777Z,0.60
2023-02-22T03:47:18.389Z,0.65
2023-02-22T03:51:21.390Z,0.65
2023-02-22T03:55:28.863Z,0.45
2023-02-22T03:59:30.877Z,0.90
2023-02-22T04:03:32.333Z,0.63
2023-02-22T04:07:34.660Z,0.73
2023-02-22T04:11:36.243Z,0.73
2023-02-22T04:15:38.576Z,0.43
2023-02-22T04:19:45.038Z,0.90
2023-02-22T04:23:48.196Z,0.90
2023-02-22T04:27:50.377Z,0.80
2023-02-22T04:31:55.853Z,0.73
2023-02-22T04:36:00.226Z,0.73
2023-02-22T04:40:02.321Z,1.10
2023-02-22T04:44:05.053Z,0.80
2023-02-22T04:48:07.195Z,0.70
2023-02-22T04:52:08.672Z,0.93
2023-02-22T04:56:12.694Z,1.13
2023-02-22T05:00:21.617Z,0.75
2023-02-22T05:04:23.417Z,0.85
2023-02-22T05:08:24.881Z,0.77
2023-02-22T05:12:27.413Z,0.82
2023-02-22T05:16:28.937Z,0.45
2023-02-22T05:20:33.478Z,0.50
2023-02-22T05:24:35.064Z,0.55
2023-02-22T05:28:36.530Z,0.45
2023-02-22T05:32:37.956Z,1.05
2023-02-22T05:36:39.420Z,1.10
2023-02-22T05:40:41.975Z,0.80
2023-02-22T05:44:44.010Z,0.77
2023-02-22T05:48:45.474Z,0.60
2023-02-22T05:52:48.814Z,0.93
2023-02-22T05:56:50.238Z,0.80
2023-02-22T06:00:51.781Z,0.77
2023-02-22T06:04:53.253Z,0.52
2023-02-22T06:08:54.689Z,1.23
2023-02-22T06:12:56.788Z,1.50
2023-02-22T06:16:59.168Z,0.47
2023-02-22T06:21:01.266Z,0.80
2023-02-22T06:25:04.449Z,0.95
2023-02-22T06:29:06.028Z,0.88
2023-02-22T06:33:09.425Z,0.73
2023-02-22T06:37:10.867Z,1.10
2023-02-22T06:41:12.307Z,0.80
2023-02-22T06:45:13.760Z,1.08
2023-02-22T06:49:15.265Z,0.55
2023-02-22T06:53:16.701Z,0.63
2023-02-22T06:57:18.582Z,0.90
2023-02-22T07:01:20.322Z,1.00
2023-02-22T07:05:23.651Z,1.00
2023-02-22T07:09:25.241Z,1.08
2023-02-22T07:13:26.717Z,0.85
2023-02-22T07:17:28.221Z,0.95
2023-02-22T07:21:30.835Z,1.20
2023-02-22T07:25:32.416Z,1.40
2023-02-22T07:29:36.017Z,0.73
2023-02-22T07:33:37.415Z,0.70
2023-02-22T07:37:38.834Z,0.68
2023-02-22T07:41:40.290Z,0.90
2023-02-22T07:46:00.110Z,1.15
2023-02-22T07:50:01.663Z,0.98
2023-02-22T07:54:03.128Z,0.93
2023-02-22T07:58:07.647Z,1.08
2023-02-22T08:02:15.916Z,0.90
2023-02-22T08:06:17.975Z,1.23
2023-02-22T08:10:22.247Z,1.10
2023-02-22T08:14:23.722Z,0.88
2023-02-22T08:18:25.775Z,0.50
2023-02-22T08:22:29.013Z,0.93
2023-02-22T08:26:30.448Z,1.33
2023-02-22T08:30:34.868Z,0.82
2023-02-22T08:34:36.437Z,1.63
2023-02-22T08:38:38.306Z,0.77
2023-02-22T08:42:39.767Z,1.00
2023-02-22T08:46:41.196Z,1.35
2023-02-22T09:02:24.987Z,0.65
2023-02-22T09:06:26.449Z,1.20
2023-02-22T09:10:30.708Z,1.67
2023-02-22T09:14:34.454Z,1.02
2023-02-22T09:18:44.022Z,0.75
2023-02-22T09:22:49.365Z,1.38
2023-02-22T09:26:56.203Z,0.77
2023-02-22T09:30:58.528Z,0.90
2023-02-22T09:34:59.977Z,0.85
2023-02-22T09:39:02.024Z,0.82
2023-02-22T09:43:18.253Z,0.88
2023-02-22T09:47:32.267Z,1.20
2023-02-22T09:51:45.497Z,0.80
2023-02-22T09:55:50.877Z,1.15
2023-02-22T10:00:13.512Z,0.88
2023-02-22T10:04:24.421Z,1.02
2023-02-22T10:08:31.295Z,0.82
2023-02-22T10:12:48.484Z,1.27
2023-02-22T10:17:17.417Z,1.25
2023-02-22T10:21:36.839Z,1.05
2023-02-22T10:25:39.454Z,0.73
2023-02-22T10:29:45.512Z,1.00
2023-02-22T10:33:51.559Z,0.77
2023-02-22T10:37:59.164Z,1.05
2023-02-22T10:42:06.731Z,0.75
2023-02-22T10:46:13.753Z,0.95
2023-02-22T10:50:16.056Z,1.30
2023-02-22T10:54:27.234Z,0.82
2023-02-22T10:58:28.887Z,1.38
2023-02-22T11:02:32.909Z,0.57
2023-02-22T11:06:35.276Z,0.88
2023-02-22T11:10:38.661Z,0.98
2023-02-22T11:14:40.115Z,0.80
2023-02-22T11:18:41.674Z,0.80
2023-02-22T11:22:43.163Z,0.65
2023-02-22T11:26:49.055Z,0.77
2023-02-22T11:30:51.915Z,0.40
2023-02-22T11:35:15.416Z,0.80
2023-02-22T11:39:24.494Z,0.65
2023-02-22T11:43:26.047Z,1.17
2023-02-22T11:47:27.496Z,0.80
2023-02-22T11:51:59.763Z,0.35
2023-02-22T11:56:35.714Z,0.32
2023-02-22T12:00:53.982Z,0.60
2023-02-22T12:05:19.391Z,0.80
2023-02-22T12:09:51.580Z,0.45
2023-02-22T12:14:14.412Z,0.90
2023-02-22T12:18:42.669Z,0.20
2023-02-22T12:22:53.417Z,0.63
2023-02-22T12:27:05.657Z,0.45
2023-02-22T12:31:25.658Z,0.88
2023-02-22T12:35:30.313Z,0.35
2023-02-22T12:39:53.535Z,0.40
2023-02-22T12:44:04.039Z,0.43
2023-02-22T12:48:31.981Z,1.08
2023-02-22T12:52:46.870Z,0.68
2023-02-22T12:56:59.500Z,0.70
2023-02-22T13:01:07.034Z,0.70
2023-02-22T13:05:15.506Z,0.32
2023-02-22T13:10:01.936Z,0.57
2023-02-22T13:14:03.337Z,0.57
2023-02-22T13:18:12.357Z,0.60
2023-02-22T13:22:35.479Z,0.77
2023-02-22T13:27:00.334Z,0.57
2023-02-22T13:31:24.016Z,0.40
2023-02-22T13:35:29.547Z,1.10
2023-02-22T13:39:55.400Z,0.93
2023-02-22T13:44:15.187Z,0.85
2023-02-22T13:48:54.359Z,0.88
2023-02-22T13:52:58.078Z,0.90
2023-02-22T13:57:02.942Z,1.13
2023-02-22T14:01:04.406Z,0.50
2023-02-22T14:05:34.995Z,0.65
2023-02-22T14:09:48.224Z,0.90
2023-02-22T14:13:57.016Z,0.63
2023-02-22T14:18:05.010Z,0.60
2023-02-22T14:22:07.793Z,1.60
2023-02-22T14:26:23.007Z,1.23
2023-02-22T14:30:30.638Z,0.80
2023-02-22T14:34:53.962Z,1.02
2023-02-22T14:39:02.842Z,1.15
2023-02-22T14:43:12.455Z,0.63
2023-02-22T14:47:20.956Z,0.77
2023-02-22T14:51:42.392Z,1.63
2023-02-22T14:55:50.799Z,1.40
2023-02-22T15:00:19.738Z,1.42
2023-02-22T15:04:27.023Z,1.73
2023-02-22T15:08:29.144Z,1.17
2023-02-22T15:12:30.596Z,1.15
2023-02-22T15:16:34.134Z,1.13
2023-02-22T15:20:38.192Z,1.70
2023-02-22T15:24:39.669Z,2.03
2023-02-22T15:28:42.346Z,1.02
2023-02-22T15:33:01.217Z,2.42
2023-02-22T15:37:25.747Z,1.13
2023-02-22T15:41:32.177Z,1.70
2023-02-22T15:45:33.867Z,2.28
2023-02-22T15:49:37.811Z,2.10
2023-02-22T15:53:48.172Z,1.92
2023-02-22T15:57:50.869Z,1.80
2023-02-22T16:01:53.921Z,1.75
2023-02-22T16:05:56.944Z,2.17
2023-02-22T16:09:58.812Z,2.85
2023-02-22T16:14:04.656Z,2.45
2023-02-22T16:18:25.942Z,3.78
2023-02-22T16:22:33.623Z,2.25
2023-02-22T16:26:35.044Z,2.50
2023-02-22T16:30:39.403Z,3.53
2023-02-22T16:34:41.083Z,2.55
2023-02-22T16:38:45.017Z,3.10
2023-02-22T16:42:46.414Z,3.85
2023-02-22T16:46:47.868Z,3.88
2023-02-22T16:50:51.701Z,3.55
2023-02-22T16:54:53.252Z,3.55
2023-02-22T16:58:54.869Z,3.40
2023-02-22T17:03:03.735Z,3.63
2023-02-22T17:07:05.525Z,3.00
2023-02-22T17:11:09.748Z,4.38
2023-02-22T17:15:19.213Z,3.38
2023-02-22T17:19:26.511Z,3.33
2023-02-22T17:23:28.383Z,3.13
2023-02-22T17:27:29.879Z,4.13
2023-02-22T17:31:31.738Z,4.35
2023-02-22T17:35:38.734Z,3.53
2023-02-22T17:39:40.222Z,4.03
2023-02-22T17:43:41.734Z,3.55
2023-02-22T17:47:44.004Z,5.10
2023-02-22T17:51:49.503Z,3.78
2023-02-22T17:55:51.376Z,4.05
2023-02-22T17:59:52.901Z,2.53
2023-02-22T18:03:56.322Z,3.20
2023-02-22T18:07:57.741Z,4.32
2023-02-22T18:11:59.197Z,5.25
2023-02-22T18:16:00.804Z,4.38
2023-02-22T18:20:02.518Z,3.90
2023-02-22T18:24:04.342Z,3.38
2023-02-22T18:28:07.525Z,4.07
2023-02-22T18:32:13.214Z,3.83
2023-02-22T18:36:22.767Z,4.28
2023-02-22T18:40:24.698Z,3.22
2023-02-22T18:44:27.090Z,4.22
2023-02-22T18:48:28.606Z,3.00
2023-02-22T18:52:30.993Z,3.50
2023-02-22T18:56:33.890Z,3.60
2023-02-22T19:00:35.461Z,4.18
2023-02-22T19:04:36.947Z,3.63
2023-02-22T19:08:40.245Z,3.65
2023-02-22T19:12:41.695Z,4.00
2023-02-22T19:16:46.606Z,3.25
2023-02-22T19:20:56.151Z,3.10
2023-02-22T19:24:57.888Z,2.42
2023-02-22T19:29:04.757Z,2.58
2023-02-22T19:33:06.289Z,2.50
2023-02-22T19:37:07.969Z,3.25
2023-02-22T19:41:17.675Z,2.35
2023-02-22T19:45:20.259Z,2.38
2023-02-22T19:49:22.828Z,2.78
2023-02-22T19:53:24.305Z,2.22
2023-02-22T19:57:26.676Z,3.63
2023-02-22T20:01:31.839Z,2.67
2023-02-22T20:05:36.846Z,2.40
2023-02-22T20:09:43.066Z,2.15
2023-02-22T20:13:44.951Z,2.05
2023-02-22T20:17:50.252Z,2.20
2023-02-22T20:21:52.820Z,2.10
2023-02-22T20:25:55.689Z,1.80
2023-02-22T20:29:57.287Z,2.33
2023-02-22T20:34:00.350Z,1.98
2023-02-22T20:38:02.747Z,2.22
2023-02-22T20:42:06.677Z,2.05
2023-02-22T20:46:08.254Z,1.10
2023-02-22T20:50:09.863Z,1.77
2023-02-22T20:54:12.317Z,1.88
2023-02-22T20:58:13.884Z,1.90
2023-02-22T21:02:15.356Z,2.17
2023-02-22T21:06:21.359Z,1.60
2023-02-22T21:10:22.990Z,1.88
2023-02-22T21:14:25.366Z,1.80
2023-02-22T21:18:27.117Z,2.08
2023-02-22T21:22:29.113Z,1.60
2023-02-22T21:26:33.396Z,1.20
2023-02-22T21:30:34.953Z,1.75
2023-02-22T21:34:36.639Z,1.73
2023-02-22T21:38:41.051Z,1.50
2023-02-22T21:42:42.512Z,2.67
2023-02-22T21:46:44.245Z,2.10
2023-02-22T21:50:46.322Z,2.65
2023-02-22T21:54:47.990Z,1.88
2023-02-22T21:59:00.977Z,0.95
2023-02-22T22:03:20.126Z,1.98
2023-02-22T22:07:22.863Z,1.67
2023-02-22T22:11:25.182Z,1.38
2023-02-22T22:15:27.821Z,1.45
2023-02-22T22:19:30.953Z,2.65
2023-02-22T22:23:33.170Z,1.33
2023-02-22T22:27:34.625Z,1.73
2023-02-22T22:31:36.158Z,1.63
2023-02-22T22:35:41.815Z,2.03
2023-02-22T22:39:43.377Z,2.13
2023-02-22T22:43:46.047Z,1.38
2023-02-22T22:47:48.173Z,1.40
2023-02-22T22:51:49.610Z,1.45
2023-02-22T22:55:51.022Z,1.73
2023-02-22T22:59:54.041Z,1.33
2023-02-22T23:04:01.612Z,1.92
2023-02-22T23:08:10.472Z,1.73
2023-02-22T23:12:17.621Z,1.58
2023-02-22T23:16:19.806Z,0.95
2023-02-22T23:20:22.670Z,1.35
2023-02-22T23:24:27.306Z,1.40
2023-02-22T23:28:29.376Z,2.38
2023-02-22T23:32:30.905Z,2.15
2023-02-22T23:36:32.469Z,2.17
2023-02-22T23:40:33.948Z,1.63
2023-02-22T23:44:35.865Z,1.70
2023-02-22T23:48:46.530Z,3.10
2023-02-22T23:52:49.478Z,2.05
2023-02-22T23:56:56.614Z,1.73
